createdAt,value
2023-02-24T00:03:23.205Z,100.00
2023-02-24T00:08:26.353Z,100.00
2023-02-24T00:13:32.220Z,100.00
2023-02-24T00:18:36.834Z,100.00
2023-02-24T00:23:41.076Z,100.00
2023-02-24T00:28:44.897Z,100.00
2023-02-24T00:33:49.589Z,100.00
2023-02-24T00:38:56.056Z,100.00
2023-02-24T00:44:06.196Z,100.00
2023-02-24T00:49:17.330Z,100.00
2023-02-24T00:54:20.560Z,100.00
2023-02-24T00:59:25.281Z,100.00
2023-02-24T01:04:29.840Z,100.00
2023-02-24T01:09:35.014Z,100.00
2023-02-24T01:14:39.770Z,100.00
2023-02-24T01:19:44.901Z,100.00
2023-02-24T01:24:48.907Z,100.00
2023-02-24T01:29:52.123Z,100.00
2023-02-24T01:34:56.827Z,100.00
2023-02-24T01:40:10.236Z,100.00
2023-02-24T01:45:18.060Z,100.00
2023-02-24T01:50:26.167Z,100.00
2023-02-24T01:55:42.937Z,100.00
2023-02-24T02:00:48.583Z,100.00
2023-02-24T02:05:56.203Z,100.00
2023-02-24T02:11:04.914Z,100.00
2023-02-24T02:16:30.536Z,100.00
2023-02-24T02:22:04.431Z,100.00
2023-02-24T02:27:37.167Z,100.00
2023-02-24T02:33:24.677Z,100.00
2023-02-24T02:38:35.439Z,100.00
2023-02-24T02:43:44.120Z,100.00
2023-02-24T02:48:52.487Z,100.00
2023-02-24T02:54:01.979Z,100.00
2023-02-24T02:59:08.430Z,100.00
2023-02-24T03:04:17.128Z,100.00
2023-02-24T03:09:25.421Z,100.00
2023-02-24T03:14:33.730Z,100.00
2023-02-24T03:19:40.323Z,100.00
2023-02-24T03:24:46.385Z,100.00
2023-02-24T03:29:55.257Z,100.00
2023-02-24T03:35:03.259Z,100.00
2023-02-24T03:40:14.661Z,100.00
2023-02-24T03:45:18.686Z,100.00
2023-02-24T03:50:23.154Z,100.00
2023-02-24T03:55:38.956Z,100.00
2023-02-24T04:00:52.373Z,100.00
2023-02-24T04:06:06.002Z,100.00
2023-02-24T04:11:20.877Z,100.00
2023-02-24T04:16:36.589Z,100.00
2023-02-24T04:21:41.242Z,100.00
2023-02-24T04:26:48.191Z,100.00
2023-02-24T04:31:55.681Z,100.00
2023-02-24T04:36:59.589Z,100.00
2023-02-24T04:42:04.085Z,100.00
2023-02-24T04:47:07.486Z,100.00
2023-02-24T04:52:10.643Z,100.00
2023-02-24T04:57:15.333Z,100.00
2023-02-24T05:02:20.656Z,100.00
2023-02-24T05:07:23.818Z,100.00
2023-02-24T05:12:29.534Z,100.00
2023-02-24T05:17:32.779Z,100.00
2023-02-24T05:22:35.956Z,100.00
2023-02-24T05:27:40.418Z,100.00
2023-02-24T05:32:43.822Z,100.00
2023-02-24T05:37:48.995Z,100.00
2023-02-24T05:42:54.548Z,100.00
2023-02-24T05:48:01.223Z,100.00
2023-02-24T05:53:05.046Z,100.00
2023-02-24T05:58:25.989Z,100.00
2023-02-24T06:03:35.802Z,100.00
2023-02-24T06:08:49.388Z,100.00
2023-02-24T06:13:58.030Z,100.00
2023-02-24T06:19:01.606Z,100.00
2023-02-24T06:24:06.687Z,100.00
2023-02-24T06:29:20.986Z,100.00
2023-02-24T06:34:31.562Z,100.00
2023-02-24T06:39:36.713Z,100.00
2023-02-24T06:44:44.695Z,100.00
2023-02-24T06:49:48.092Z,100.00
2023-02-24T06:54:55.841Z,100.00
2023-02-24T07:00:20.226Z,100.00
2023-02-24T07:05:24.244Z,100.00
2023-02-24T07:10:30.078Z,100.00
2023-02-24T07:15:37.378Z,100.00
2023-02-24T07:20:46.639Z,100.00
2023-02-24T07:25:55.653Z,100.00
2023-02-24T07:31:00.563Z,100.00
2023-02-24T07:36:08.652Z,100.00
2023-02-24T07:41:19.286Z,100.00
2023-02-24T07:46:30.357Z,100.00
2023-02-24T07:51:33.911Z,100.00
2023-02-24T07:56:48.950Z,100.00
2023-02-24T08:01:56.976Z,100.00
2023-02-24T08:07:03.333Z,100.00
2023-02-24T08:12:08.224Z,100.00
2023-02-24T08:17:20.087Z,100.00
2023-02-24T08:22:25.409Z,100.00
2023-02-24T08:27:30.793Z,98.09
2023-02-24T08:32:43.901Z,95.46
2023-02-24T08:37:50.054Z,94.37
2023-02-24T08:42:53.290Z,94.68
2023-02-24T08:48:00.682Z,93.12
2023-02-24T08:53:04.074Z,90.81
2023-02-24T08:58:11.322Z,89.94
2023-02-24T09:03:28.118Z,87.98
2023-02-24T09:08:38.715Z,86.78
2023-02-24T09:13:51.721Z,86.16
2023-02-24T09:19:10.152Z,84.03
2023-02-24T09:24:15.992Z,83.52
2023-02-24T09:34:48.999Z,83.98
2023-02-24T09:40:15.360Z,82.64
2023-02-24T09:45:33.366Z,82.24
2023-02-24T09:51:03.792Z,82.64
2023-02-24T09:56:16.201Z,82.40
2023-02-24T10:01:33.724Z,82.50
2023-02-24T10:06:41.912Z,82.45
2023-02-24T10:11:54.785Z,82.64
2023-02-24T10:17:15.912Z,82.09
2023-02-24T10:22:30.956Z,82.09
2023-02-24T10:27:43.126Z,82.27
2023-02-24T10:32:52.213Z,80.27
2023-02-24T10:38:05.319Z,80.37
2023-02-24T10:43:11.013Z,80.97
2023-02-24T10:48:42.082Z,80.97
2023-02-24T10:53:53.475Z,80.08
2023-02-24T10:59:22.540Z,80.23
2023-02-24T11:04:54.272Z,77.68
2023-02-24T11:10:12.361Z,74.10
2023-02-24T11:15:35.856Z,75.24
2023-02-24T11:20:49.421Z,76.33
2023-02-24T11:25:59.853Z,73.65
2023-02-24T11:31:15.444Z,73.93
2023-02-24T11:36:29.791Z,75.46
2023-02-24T11:41:37.284Z,74.93
2023-02-24T11:46:44.376Z,74.99
2023-02-24T11:51:47.958Z,75.49
2023-02-24T11:56:56.257Z,74.68
2023-02-24T12:02:08.119Z,74.72
2023-02-24T12:07:20.333Z,75.95
2023-02-24T12:12:29.957Z,75.52
2023-02-24T12:17:38.606Z,74.98
2023-02-24T12:22:48.153Z,74.61
2023-02-24T12:28:05.698Z,75.58
2023-02-24T12:33:25.698Z,75.72
2023-02-24T12:38:51.666Z,73.17
2023-02-24T12:44:03.754Z,73.56
2023-02-24T12:49:23.375Z,71.88
2023-02-24T12:54:32.377Z,72.54
2023-02-24T12:59:41.141Z,72.09
2023-02-24T13:04:55.255Z,72.58
2023-02-24T13:10:13.363Z,72.07
2023-02-24T13:15:22.491Z,72.67
2023-02-24T13:20:32.095Z,74.01
2023-02-24T13:25:38.666Z,74.36
2023-02-24T13:30:45.569Z,76.54
2023-02-24T13:35:51.405Z,78.83
2023-02-24T13:40:55.043Z,79.11
2023-02-24T13:46:02.876Z,80.92
2023-02-24T13:51:21.323Z,82.75
2023-02-24T13:56:37.139Z,83.40
2023-02-24T14:01:51.122Z,85.12
2023-02-24T14:06:57.787Z,85.62
2023-02-24T14:12:04.287Z,86.36
2023-02-24T14:17:24.910Z,87.62
2023-02-24T14:22:28.310Z,88.75
2023-02-24T14:27:31.861Z,89.54
2023-02-24T14:32:36.992Z,90.86
2023-02-24T14:37:43.136Z,91.95
2023-02-24T14:42:49.034Z,91.62
2023-02-24T14:47:53.882Z,94.21
2023-02-24T14:53:03.639Z,94.12
2023-02-24T14:58:10.698Z,94.60
2023-02-24T15:03:21.166Z,96.56
2023-02-24T15:08:36.324Z,97.97
2023-02-24T15:13:42.938Z,98.30
2023-02-24T15:18:51.468Z,98.91
2023-02-24T15:24:02.337Z,99.44
2023-02-24T15:29:15.573Z,100.00
2023-02-24T15:34:22.676Z,100.00
2023-02-24T15:39:31.691Z,100.00
2023-02-24T15:44:37.491Z,100.00
2023-02-24T15:49:43.247Z,100.00
2023-02-24T15:54:49.623Z,100.00
2023-02-24T15:59:53.880Z,100.00
2023-02-24T16:04:58.528Z,100.00
2023-02-24T16:10:03.489Z,100.00
2023-02-24T16:15:13.378Z,100.00
2023-02-24T16:20:20.453Z,100.00
2023-02-24T16:25:24.574Z,100.00
2023-02-24T16:30:31.145Z,100.00
2023-02-24T16:35:36.006Z,100.00
2023-02-24T16:40:40.669Z,100.00
2023-02-24T16:45:45.313Z,100.00
2023-02-24T16:50:51.525Z,100.00
2023-02-24T16:55:54.721Z,100.00
2023-02-24T17:01:02.743Z,100.00
2023-02-24T17:06:07.800Z,100.00
2023-02-24T17:11:13.929Z,100.00
2023-02-24T17:16:18.576Z,100.00
2023-02-24T17:21:24.441Z,100.00
2023-02-24T17:26:27.620Z,100.00
2023-02-24T17:31:35.024Z,100.00
2023-02-24T17:36:39.552Z,100.00
2023-02-24T17:41:42.634Z,100.00
2023-02-24T17:46:49.738Z,100.00
2023-02-24T17:51:54.625Z,100.00
2023-02-24T17:56:57.937Z,100.00
2023-02-24T18:02:02.300Z,100.00
2023-02-24T18:07:13.891Z,100.00
2023-02-24T18:12:35.283Z,100.00
2023-02-24T18:17:42.148Z,100.00
2023-02-24T18:22:46.596Z,100.00
2023-02-24T18:27:49.744Z,100.00
2023-02-24T18:32:53.011Z,100.00
2023-02-24T18:37:57.902Z,100.00
2023-02-24T18:43:11.453Z,100.00
2023-02-24T18:48:15.153Z,100.00
2023-02-24T18:53:23.875Z,100.00
2023-02-24T18:58:35.322Z,100.00
2023-02-24T19:03:41.788Z,100.00
2023-02-24T19:08:46.718Z,100.00
2023-02-24T19:14:11.561Z,100.00
2023-02-24T19:19:17.522Z,100.00
2023-02-24T19:24:42.001Z,100.00
2023-02-24T19:29:53.507Z,100.00
2023-02-24T19:35:06.583Z,100.00
2023-02-24T19:40:17.872Z,100.00
2023-02-24T19:45:33.752Z,100.00
2023-02-24T19:50:47.782Z,100.00
2023-02-24T19:56:29.624Z,100.00
2023-02-24T20:01:51.746Z,100.00
2023-02-24T20:06:54.884Z,100.00
2023-02-24T20:12:01.715Z,100.00
2023-02-24T20:17:04.966Z,100.00
2023-02-24T20:22:08.252Z,100.00
2023-02-24T20:27:12.906Z,100.00
2023-02-24T20:32:16.298Z,100.00
2023-02-24T20:37:19.799Z,100.00
2023-02-24T20:42:24.474Z,100.00
2023-02-24T20:47:27.830Z,100.00
2023-02-24T20:52:31.222Z,100.00
2023-02-24T20:57:35.939Z,100.00
2023-02-24T21:02:41.107Z,100.00
2023-02-24T21:07:44.382Z,100.00
2023-02-24T21:12:50.475Z,100.00
2023-02-24T21:17:54.477Z,100.00
2023-02-24T21:22:58.077Z,100.00
2023-02-24T21:28:02.723Z,100.00
2023-02-24T21:33:06.102Z,100.00
2023-02-24T21:38:09.262Z,100.00
2023-02-24T21:43:13.701Z,100.00
2023-02-24T21:48:17.933Z,100.00
2023-02-24T21:53:23.687Z,100.00
2023-02-24T21:58:28.978Z,100.00
2023-02-24T22:03:32.365Z,100.00
2023-02-24T22:08:37.419Z,100.00
2023-02-24T22:13:42.770Z,100.00
2023-02-24T22:18:46.187Z,100.00
2023-02-24T22:23:51.246Z,100.00
2023-02-24T22:28:56.090Z,100.00
2023-02-24T22:33:59.832Z,100.00
2023-02-24T22:39:04.008Z,100.00
2023-02-24T22:44:08.647Z,100.00
2023-02-24T22:49:12.244Z,100.00
2023-02-24T22:54:15.902Z,100.00
2023-02-24T22:59:20.397Z,100.00
2023-02-24T23:04:24.160Z,100.00
2023-02-24T23:09:28.164Z,100.00
2023-02-24T23:14:32.909Z,100.00
2023-02-24T23:19:36.129Z,100.00
2023-02-24T23:24:39.333Z,100.00
2023-02-24T23:29:44.037Z,100.00
2023-02-24T23:34:47.242Z,100.00
2023-02-24T23:39:50.275Z,100.00
2023-02-24T23:44:54.963Z,100.00
2023-02-24T23:49:58.117Z,100.00
2023-02-24T23:55:01.489Z,100.00
